Metar z połowy godziny Komunikat METAR ze strony awiacja.imgw.pl Metar G30 EPPW METAR EPPW 240530Z 16008KT 4000 BR BKN020 BKN033 01/00 Q1019 RMK 011 094 7/5=